Time;durP1;ratioP1;P1;durP2;ratioP2;P2;SDS_P1;SDS_P2;PMS_P1;PMS_P2;Temp;Humidity;BMP_temperature;BMP_pressure;BME280_temperature;BME280_humidity;BME280_pressure;Samples;Min_cycle;Max_cycle;Signal;HPM_P1;HPM_P2
2021/03/20 00:01:20;;;;;;;;;;;7.10;67.60;;;;;;5113547;28;20400;-66
2021/03/20 00:03:45;;;;;;;;;;;7.10;67.70;;;;;;5113633;28;19908;-67
2021/03/20 00:06:12;;;;;;;;;;;7.10;67.70;;;;;;5113739;28;19904;-66
2021/03/20 00:08:43;;;;;;;;;;;7.00;67.70;;;;;;5113056;28;19947;-67
2021/03/20 00:11:10;;;;;;;;;;;7.10;67.80;;;;;;5101476;28;19908;-67
2021/03/20 00:13:36;;;;;;;;;;;7.10;67.70;;;;;;5111268;28;19908;-67
2021/03/20 00:16:01;;;;;;;;;;;7.10;67.70;;;;;;5113008;28;19961;-67
2021/03/20 00:18:27;;;;;;;;;;;7.00;67.70;;;;;;5113406;28;19907;-67
2021/03/20 00:20:53;;;;;;;;;;;7.00;67.60;;;;;;5113543;28;19976;-66
2021/03/20 00:23:19;;;;;;;;;;;7.00;67.50;;;;;;5112711;28;19908;-66
2021/03/20 00:25:45;;;;;;;;;;;7.00;67.40;;;;;;5113585;28;20320;-67
2021/03/20 00:28:12;;;;;;;;;;;7.00;67.40;;;;;;5113643;28;19904;-66
2021/03/20 00:30:39;;;;;;;;;;;7.00;67.40;;;;;;5112687;28;20002;-67
2021/03/20 00:33:04;;;;;;;;;;;6.90;67.30;;;;;;5113344;28;19908;-67
2021/03/20 00:35:30;;;;;;;;;;;7.00;67.30;;;;;;5113282;28;19927;-67
2021/03/20 00:37:55;;;;;;;;;;;6.90;67.20;;;;;;5112876;28;19923;-66
2021/03/20 00:40:24;;;;;;;;;;;6.90;67.10;;;;;;5113313;28;20002;-67
2021/03/20 00:42:50;;;;;;;;;;;6.90;67.20;;;;;;5117525;28;19958;-67
2021/03/20 00:45:17;;;;;;;;;;;6.90;67.30;;;;;;5116793;28;19938;-67
2021/03/20 00:47:43;;;;;;;;;;;6.90;67.60;;;;;;5117298;28;19908;-67
2021/03/20 00:50:11;;;;;;;;;;;6.90;67.50;;;;;;5116815;28;19914;-67
2021/03/20 00:52:38;;;;;;;;;;;6.90;67.50;;;;;;5117035;28;19908;-67
2021/03/20 00:55:03;;;;;;;;;;;6.80;67.50;;;;;;5117373;28;19960;-67
2021/03/20 00:57:29;;;;;;;;;;;6.90;67.60;;;;;;5117238;28;19969;-66
2021/03/20 00:59:55;;;;;;;;;;;6.80;67.50;;;;;;5116366;28;19908;-67
2021/03/20 01:02:20;;;;;;;;;;;6.80;67.50;;;;;;5117055;28;19908;-68
2021/03/20 01:04:46;;;;;;;;;;;6.80;67.50;;;;;;5116556;28;19998;-68
2021/03/20 01:07:11;;;;;;;;;;;6.80;67.40;;;;;;5117100;28;20270;-68
2021/03/20 01:09:37;;;;;;;;;;;6.80;67.30;;;;;;5117067;28;19907;-68
2021/03/20 01:12:03;;;;;;;;;;;6.80;67.30;;;;;;5116434;28;20350;-67
2021/03/20 01:14:28;;;;;;;;;;;6.80;67.30;;;;;;5116713;28;19908;-67
2021/03/20 01:16:54;;;;;;;;;;;6.80;67.10;;;;;;5116838;28;19970;-68
2021/03/20 01:19:19;;;;;;;;;;;6.70;67.00;;;;;;5115988;28;20002;-68
2021/03/20 01:21:45;;;;;;;;;;;6.70;67.00;;;;;;5116588;28;19908;-67
2021/03/20 01:24:11;;;;;;;;;;;6.70;66.90;;;;;;5116867;28;19908;-68
2021/03/20 01:26:36;;;;;;;;;;;6.70;66.90;;;;;;5115930;28;19914;-67
2021/03/20 01:29:02;;;;;;;;;;;6.60;66.80;;;;;;5116409;28;20002;-67
2021/03/20 01:31:28;;;;;;;;;;;6.60;66.80;;;;;;5116828;28;19908;-67
2021/03/20 01:33:53;;;;;;;;;;;6.60;66.80;;;;;;5115878;28;19912;-67
2021/03/20 01:36:19;;;;;;;;;;;6.60;66.90;;;;;;5116307;28;20622;-67
2021/03/20 01:38:45;;;;;;;;;;;6.50;66.80;;;;;;5116360;28;19908;-67
2021/03/20 01:41:15;;;;;;;;;;;6.50;66.90;;;;;;5115560;28;19914;-67
2021/03/20 01:43:41;;;;;;;;;;;6.50;66.90;;;;;;5116328;28;19937;-67
2021/03/20 01:46:25;;;;;;;;;;;6.60;67.00;;;;;;5116021;28;20408;-68
2021/03/20 01:48:50;;;;;;;;;;;6.50;67.00;;;;;;5115597;28;19911;-68
2021/03/20 01:51:16;;;;;;;;;;;6.50;66.90;;;;;;5116289;28;20270;-67
2021/03/20 01:53:47;;;;;;;;;;;6.50;66.80;;;;;;5115995;28;19915;-67
2021/03/20 01:56:17;;;;;;;;;;;6.50;66.80;;;;;;5115016;28;20385;-67
2021/03/20 01:58:43;;;;;;;;;;;6.50;66.80;;;;;;5115987;28;19912;-67
2021/03/20 02:01:11;;;;;;;;;;;6.40;66.70;;;;;;5115584;28;20350;-68
2021/03/20 02:03:37;;;;;;;;;;;6.40;66.60;;;;;;5115825;28;19907;-67
2021/03/20 02:06:04;;;;;;;;;;;6.40;66.70;;;;;;5116049;28;19994;-68
2021/03/20 02:08:29;;;;;;;;;;;6.40;66.70;;;;;;5115162;28;19912;-67
2021/03/20 02:11:04;;;;;;;;;;;6.40;66.60;;;;;;5115873;28;20025;-67
2021/03/20 02:13:36;;;;;;;;;;;6.30;66.60;;;;;;5115857;28;19957;-68
2021/03/20 02:16:15;;;;;;;;;;;6.30;66.60;;;;;;5105156;28;19907;-67
2021/03/20 02:18:51;;;;;;;;;;;6.30;66.60;;;;;;5113201;28;19927;-67
2021/03/20 02:21:20;;;;;;;;;;;6.30;66.60;;;;;;5115700;28;19915;-68
2021/03/20 02:23:46;;;;;;;;;;;6.30;66.60;;;;;;5114688;28;20286;-67
2021/03/20 02:26:30;;;;;;;;;;;6.30;66.60;;;;;;5115720;28;19908;-67
2021/03/20 02:28:56;;;;;;;;;;;6.30;66.60;;;;;;5100922;28;19908;-68
2021/03/20 02:31:41;;;;;;;;;;;6.30;66.60;;;;;;5114666;28;19914;-67
2021/03/20 02:34:06;;;;;;;;;;;6.20;66.70;;;;;;5115209;27;19908;-67
2021/03/20 02:37:01;;;;;;;;;;;6.20;67.00;;;;;;5114400;28;19916;-68
2021/03/20 02:39:39;;;;;;;;;;;6.10;67.10;;;;;;5097244;28;19966;-67
2021/03/20 02:42:18;;;;;;;;;;;6.10;67.20;;;;;;5115150;28;19908;-67
2021/03/20 02:44:58;;;;;;;;;;;6.10;67.10;;;;;;5114729;28;19915;-68
2021/03/20 02:47:26;;;;;;;;;;;6.10;67.10;;;;;;5114903;28;20397;-68
2021/03/20 02:49:55;;;;;;;;;;;6.10;67.10;;;;;;5115153;28;19907;-68
2021/03/20 02:52:24;;;;;;;;;;;6.10;67.20;;;;;;5107496;28;19908;-67
2021/03/20 02:54:49;;;;;;;;;;;6.10;67.20;;;;;;5114529;28;19922;-67
2021/03/20 02:57:18;;;;;;;;;;;6.10;67.10;;;;;;5114293;28;20305;-68
2021/03/20 02:59:47;;;;;;;;;;;6.10;67.10;;;;;;5107087;28;19908;-67
2021/03/20 03:02:14;;;;;;;;;;;6.10;67.10;;;;;;5114647;28;20418;-68
2021/03/20 03:04:43;;;;;;;;;;;6.00;67.10;;;;;;5095762;28;20063;-67
2021/03/20 03:07:14;;;;;;;;;;;6.00;67.20;;;;;;5094411;28;19919;-67
2021/03/20 03:09:47;;;;;;;;;;;6.00;67.30;;;;;;5110572;28;19922;-67
2021/03/20 03:12:14;;;;;;;;;;;6.00;67.30;;;;;;5113892;28;20019;-67
2021/03/20 03:14:47;;;;;;;;;;;6.00;67.30;;;;;;5114486;28;19911;-68
2021/03/20 03:17:14;;;;;;;;;;;6.00;67.40;;;;;;5106002;28;19919;-67
2021/03/20 03:19:42;;;;;;;;;;;6.00;67.40;;;;;;5093220;28;19915;-67
2021/03/20 03:22:08;;;;;;;;;;;5.90;67.50;;;;;;5093975;28;19912;-67
2021/03/20 03:24:35;;;;;;;;;;;5.90;67.50;;;;;;5093990;28;19915;-67
2021/03/20 03:27:06;;;;;;;;;;;5.90;67.60;;;;;;5111830;28;19912;-67
2021/03/20 03:29:33;;;;;;;;;;;5.90;67.60;;;;;;5114351;28;19908;-68
2021/03/20 03:32:04;;;;;;;;;;;5.90;67.60;;;;;;5110679;28;20338;-67
2021/03/20 03:34:49;;;;;;;;;;;5.90;67.60;;;;;;5093265;28;19908;-68
2021/03/20 03:37:21;;;;;;;;;;;5.90;67.80;;;;;;5093540;28;19930;-68
2021/03/20 03:39:49;;;;;;;;;;;5.80;67.80;;;;;;5093280;28;20251;-67
2021/03/20 03:42:16;;;;;;;;;;;5.80;67.90;;;;;;5093733;28;19908;-68
2021/03/20 03:44:44;;;;;;;;;;;5.80;68.00;;;;;;5093742;28;19908;-68
2021/03/20 03:47:11;;;;;;;;;;;5.80;68.30;;;;;;5092797;28;20308;-68
2021/03/20 03:49:36;;;;;;;;;;;5.80;68.70;;;;;;5093860;28;19908;-67
2021/03/20 03:52:03;;;;;;;;;;;5.80;68.80;;;;;;5093564;28;20260;-68
2021/03/20 03:54:29;;;;;;;;;;;5.80;68.90;;;;;;5092851;28;20464;-68
2021/03/20 03:57:00;;;;;;;;;;;5.70;68.90;;;;;;5093480;28;20014;-68
2021/03/20 03:59:38;;;;;;;;;;;5.70;69.10;;;;;;5097488;28;20312;-68
2021/03/20 04:02:13;;;;;;;;;;;5.70;69.40;;;;;;5113031;28;20354;-68
2021/03/20 04:04:44;;;;;;;;;;;5.70;69.80;;;;;;5093960;28;20363;-68
2021/03/20 04:07:09;;;;;;;;;;;5.70;70.00;;;;;;5093468;28;19923;-68
2021/03/20 04:09:58;;;;;;;;;;;5.70;70.20;;;;;;5092278;28;19908;-68
2021/03/20 04:12:32;;;;;;;;;;;5.70;70.30;;;;;;5093274;28;20411;-67
2021/03/20 04:15:07;;;;;;;;;;;5.60;70.50;;;;;;5092671;28;19908;-68
2021/03/20 04:17:39;;;;;;;;;;;5.60;70.60;;;;;;5093239;28;19942;-68
2021/03/20 04:20:10;;;;;;;;;;;5.60;70.70;;;;;;5092784;28;19911;-68
2021/03/20 04:22:55;;;;;;;;;;;5.60;70.90;;;;;;5091176;28;19950;-68
2021/03/20 04:25:34;;;;;;;;;;;5.60;71.00;;;;;;5093199;28;19930;-67
2021/03/20 04:28:13;;;;;;;;;;;5.60;71.10;;;;;;5093142;28;20278;-67
2021/03/20 04:30:40;;;;;;;;;;;5.60;71.30;;;;;;5092445;28;19946;-68
2021/03/20 04:33:13;;;;;;;;;;;5.60;71.40;;;;;;5094406;28;19908;-67
2021/03/20 04:35:40;;;;;;;;;;;5.60;71.50;;;;;;5105543;28;19916;-67
2021/03/20 04:38:06;;;;;;;;;;;5.50;71.60;;;;;;5109407;28;19959;-68
2021/03/20 04:40:52;;;;;;;;;;;5.50;71.60;;;;;;5103858;28;19955;-68
2021/03/20 04:43:21;;;;;;;;;;;5.50;71.90;;;;;;5110936;28;19994;-68
2021/03/20 04:46:00;;;;;;;;;;;5.50;72.10;;;;;;5113056;28;19960;-68
2021/03/20 04:48:34;;;;;;;;;;;5.50;72.70;;;;;;5105745;28;20407;-68
2021/03/20 04:51:23;;;;;;;;;;;5.50;72.20;;;;;;5105220;28;19908;-68
2021/03/20 04:53:49;;;;;;;;;;;5.40;72.30;;;;;;5097853;28;19922;-68
2021/03/20 04:56:17;;;;;;;;;;;5.40;72.40;;;;;;5101306;28;19958;-68
2021/03/20 04:58:45;;;;;;;;;;;5.40;72.50;;;;;;5112386;28;20378;-68
2021/03/20 05:01:17;;;;;;;;;;;5.40;72.70;;;;;;5108266;28;19931;-68
2021/03/20 05:03:59;;;;;;;;;;;5.40;72.70;;;;;;5093339;28;19919;-68
2021/03/20 05:06:25;;;;;;;;;;;5.40;72.70;;;;;;5092596;28;20317;-68
2021/03/20 05:08:53;;;;;;;;;;;5.50;72.70;;;;;;5092928;28;19908;-68
2021/03/20 05:11:21;;;;;;;;;;;5.40;72.60;;;;;;5094322;28;19912;-68
2021/03/20 05:13:55;;;;;;;;;;;5.40;72.60;;;;;;5102319;28;19939;-68
2021/03/20 05:16:21;;;;;;;;;;;5.40;72.50;;;;;;5092457;28;20356;-68
2021/03/20 05:18:49;;;;;;;;;;;5.40;72.90;;;;;;5092320;28;19908;-68
2021/03/20 05:21:20;;;;;;;;;;;5.40;73.10;;;;;;5094424;28;19961;-68
2021/03/20 05:23:46;;;;;;;;;;;5.40;73.30;;;;;;5104340;28;19915;-68
2021/03/20 05:26:12;;;;;;;;;;;5.40;73.50;;;;;;5091623;28;19912;-68
2021/03/20 05:28:38;;;;;;;;;;;5.30;73.60;;;;;;5095768;28;19908;-68
2021/03/20 05:31:04;;;;;;;;;;;5.30;73.70;;;;;;5096170;28;19958;-68
2021/03/20 05:33:30;;;;;;;;;;;5.30;73.80;;;;;;5095212;28;19961;-68
2021/03/20 05:35:56;;;;;;;;;;;5.30;74.00;;;;;;5095866;28;20286;-68
2021/03/20 05:38:22;;;;;;;;;;;5.30;74.10;;;;;;5110044;28;19924;-68
2021/03/20 05:40:48;;;;;;;;;;;5.30;74.10;;;;;;5095411;28;19908;-68
2021/03/20 05:43:28;;;;;;;;;;;5.30;74.30;;;;;;5095354;28;19912;-68
2021/03/20 05:45:58;;;;;;;;;;;5.30;74.30;;;;;;5104480;28;19998;-68
2021/03/20 05:48:27;;;;;;;;;;;5.20;74.30;;;;;;5100184;28;19908;-67
2021/03/20 05:50:58;;;;;;;;;;;5.30;74.40;;;;;;5095934;28;19916;-68
2021/03/20 05:53:48;;;;;;;;;;;5.20;74.30;;;;;;5095050;28;19947;-68
2021/03/20 05:56:40;;;;;;;;;;;5.20;74.40;;;;;;5105678;28;19908;-68
2021/03/20 05:59:13;;;;;;;;;;;5.20;74.40;;;;;;5094878;28;19912;-68
2021/03/20 06:01:44;;;;;;;;;;;5.10;74.30;;;;;;5115476;28;19915;-68
2021/03/20 06:04:13;;;;;;;;;;;5.10;74.30;;;;;;5101440;28;20362;-68
2021/03/20 06:06:57;;;;;;;;;;;5.10;74.30;;;;;;5108058;28;19908;-68
2021/03/20 06:09:28;;;;;;;;;;;5.10;74.50;;;;;;5094694;28;20286;-68
2021/03/20 06:12:11;;;;;;;;;;;5.00;74.60;;;;;;5095335;28;19908;-68
2021/03/20 06:14:46;;;;;;;;;;;5.10;74.70;;;;;;5094574;28;19951;-68
2021/03/20 06:17:20;;;;;;;;;;;5.10;74.80;;;;;;5106006;28;19915;-68
2021/03/20 06:20:04;;;;;;;;;;;5.10;74.70;;;;;;5097601;28;20282;-68
2021/03/20 06:22:48;;;;;;;;;;;5.10;74.80;;;;;;5094706;28;19908;-68
2021/03/20 06:25:32;;;;;;;;;;;5.00;74.80;;;;;;5095073;28;20364;-68
2021/03/20 06:27:58;;;;;;;;;;;5.10;74.90;;;;;;5095128;28;19957;-68
2021/03/20 06:30:39;;;;;;;;;;;5.00;75.00;;;;;;5094551;28;20305;-68
2021/03/20 06:33:12;;;;;;;;;;;5.10;75.00;;;;;;5109130;28;19915;-68
2021/03/20 06:35:37;;;;;;;;;;;5.10;75.00;;;;;;5094085;28;19908;-68
2021/03/20 06:38:05;;;;;;;;;;;5.00;74.90;;;;;;5093942;28;20345;-68
2021/03/20 06:40:40;;;;;;;;;;;5.00;74.90;;;;;;5094390;28;20378;-68
2021/03/20 06:43:08;;;;;;;;;;;5.00;74.90;;;;;;5094017;28;19908;-70
2021/03/20 06:45:34;;;;;;;;;;;5.00;74.90;;;;;;5094925;28;19908;-68
2021/03/20 06:48:05;;;;;;;;;;;5.00;75.20;;;;;;5093472;28;20352;-68
2021/03/20 06:50:36;;;;;;;;;;;5.00;75.00;;;;;;5108087;28;19995;-67
2021/03/20 06:53:04;;;;;;;;;;;5.00;75.00;;;;;;5094754;28;20267;-67
2021/03/20 06:55:31;;;;;;;;;;;5.00;75.10;;;;;;5094274;28;20020;-67
2021/03/20 06:57:57;;;;;;;;;;;5.00;75.20;;;;;;5092357;28;19916;-67
2021/03/20 07:00:23;;;;;;;;;;;5.00;75.20;;;;;;5106621;28;20006;-68
2021/03/20 07:03:20;;;;;;;;;;;5.00;75.00;;;;;;5095858;28;19950;-68
2021/03/20 07:06:04;;;;;;;;;;;5.00;75.10;;;;;;5094118;28;19908;-68
2021/03/20 07:08:52;;;;;;;;;;;5.00;75.20;;;;;;5094234;28;19908;-68
2021/03/20 07:11:18;;;;;;;;;;;5.00;75.20;;;;;;5107711;28;19911;-68
2021/03/20 07:13:44;;;;;;;;;;;5.00;75.20;;;;;;5103571;28;19990;-73
2021/03/20 07:16:12;;;;;;;;;;;5.00;75.30;;;;;;5094808;28;19908;-75
2021/03/20 07:18:49;;;;;;;;;;;4.90;75.20;;;;;;5103923;28;20014;-69
2021/03/20 07:21:23;;;;;;;;;;;5.00;75.50;;;;;;5114255;28;20006;-71
2021/03/20 07:23:59;;;;;;;;;;;5.00;75.50;;;;;;5111313;28;19919;-68
2021/03/20 07:26:25;;;;;;;;;;;5.00;75.40;;;;;;5113619;28;20345;-68
2021/03/20 07:28:51;;;;;;;;;;;4.90;75.30;;;;;;5113754;28;19954;-69
2021/03/20 07:31:18;;;;;;;;;;;4.90;75.40;;;;;;5102243;28;20011;-70
2021/03/20 07:33:48;;;;;;;;;;;4.90;75.60;;;;;;5091698;28;20612;-70
2021/03/20 07:36:52;;;;;;;;;;;4.90;75.80;;;;;;5092375;28;19920;-68
2021/03/20 07:39:23;;;;;;;;;;;4.80;75.90;;;;;;5052149;28;19920;-70
2021/03/20 07:41:51;;;;;;;;;;;4.80;76.20;;;;;;5055547;28;19955;-69
2021/03/20 07:44:17;;;;;;;;;;;4.70;76.30;;;;;;5088915;28;19908;-71
2021/03/20 07:46:43;;;;;;;;;;;4.80;76.60;;;;;;5110896;28;19988;-71
2021/03/20 07:49:29;;;;;;;;;;;4.70;76.80;;;;;;5101220;28;19998;-70
2021/03/20 07:51:57;;;;;;;;;;;4.80;77.00;;;;;;5111937;28;20002;-69
2021/03/20 07:54:24;;;;;;;;;;;4.70;77.20;;;;;;5112676;28;19927;-69
2021/03/20 07:56:51;;;;;;;;;;;4.70;77.40;;;;;;5113501;28;19912;-70
2021/03/20 07:59:20;;;;;;;;;;;4.70;77.70;;;;;;5107283;28;20002;-71
2021/03/20 08:01:51;;;;;;;;;;;4.70;77.90;;;;;;5103613;28;20279;-70
2021/03/20 08:04:16;;;;;;;;;;;4.70;78.00;;;;;;5107160;28;19914;-73
2021/03/20 08:06:46;;;;;;;;;;;4.70;78.20;;;;;;5112601;28;19911;-67
2021/03/20 08:09:20;;;;;;;;;;;4.80;78.30;;;;;;5107953;28;19907;-69
2021/03/20 08:11:47;;;;;;;;;;;4.80;78.40;;;;;;5112194;28;19907;-69
2021/03/20 08:14:18;;;;;;;;;;;4.80;78.50;;;;;;5112183;28;19988;-71
2021/03/20 08:16:44;;;;;;;;;;;4.90;78.70;;;;;;5107323;28;20283;-69
2021/03/20 08:19:19;;;;;;;;;;;4.90;78.70;;;;;;5105674;28;20006;-69
2021/03/20 08:22:02;;;;;;;;;;;5.00;78.90;;;;;;5096273;28;20003;-70
2021/03/20 08:24:28;;;;;;;;;;;5.00;79.00;;;;;;5094362;28;19962;-69
2021/03/20 08:26:53;;;;;;;;;;;5.00;79.20;;;;;;5097512;28;19980;-69
2021/03/20 08:29:44;;;;;;;;;;;5.10;79.40;;;;;;5089553;28;19908;-69
2021/03/20 08:32:29;;;;;;;;;;;5.00;79.50;;;;;;5089714;28;19991;-69
2021/03/20 08:35:06;;;;;;;;;;;5.10;79.80;;;;;;5092808;28;19916;-69
2021/03/20 08:37:32;;;;;;;;;;;5.10;79.80;;;;;;5092113;28;20327;-69
2021/03/20 08:40:17;;;;;;;;;;;5.20;80.00;;;;;;5095169;28;19991;-69
2021/03/20 08:42:57;;;;;;;;;;;5.20;80.10;;;;;;5112608;28;20006;-68
2021/03/20 08:45:38;;;;;;;;;;;5.20;80.30;;;;;;5113106;28;19911;-68
2021/03/20 08:48:12;;;;;;;;;;;5.30;80.50;;;;;;5113259;28;19922;-69
2021/03/20 08:50:37;;;;;;;;;;;5.30;80.70;;;;;;5111833;28;19915;-69
2021/03/20 08:53:08;;;;;;;;;;;5.40;80.90;;;;;;5113376;28;19916;-69
2021/03/20 08:55:39;;;;;;;;;;;5.40;81.00;;;;;;5112875;28;20391;-68
2021/03/20 08:58:13;;;;;;;;;;;5.40;81.10;;;;;;5110915;28;20281;-69
2021/03/20 09:00:47;;;;;;;;;;;5.50;81.30;;;;;;5112870;28;19907;-69
2021/03/20 09:03:18;;;;;;;;;;;5.50;81.50;;;;;;5107974;28;19912;-71
2021/03/20 09:05:48;;;;;;;;;;;5.50;81.50;;;;;;5096521;28;19985;-70
2021/03/20 09:08:28;;;;;;;;;;;5.60;81.70;;;;;;5100762;28;19907;-70
2021/03/20 09:11:21;;;;;;;;;;;5.60;81.80;;;;;;5099807;28;19908;-68
2021/03/20 09:13:49;;;;;;;;;;;5.70;81.90;;;;;;5107240;28;19914;-68
2021/03/20 09:16:26;;;;;;;;;;;5.70;82.10;;;;;;5099594;28;19915;-69
2021/03/20 09:18:52;;;;;;;;;;;5.70;82.30;;;;;;5096124;28;19920;-68
2021/03/20 09:21:19;;;;;;;;;;;5.80;82.60;;;;;;5096444;28;19931;-69
2021/03/20 09:23:47;;;;;;;;;;;5.80;82.70;;;;;;5096533;28;20211;-69
2021/03/20 09:26:33;;;;;;;;;;;5.80;82.90;;;;;;5095645;28;19916;-69
2021/03/20 09:29:03;;;;;;;;;;;5.90;83.20;;;;;;5095981;28;19931;-69
2021/03/20 09:31:29;;;;;;;;;;;5.90;83.30;;;;;;5097393;28;19954;-69
2021/03/20 09:33:55;;;;;;;;;;;6.00;83.50;;;;;;5108116;28;19908;-69
2021/03/20 09:36:21;;;;;;;;;;;6.00;83.60;;;;;;5095783;28;19916;-69
2021/03/20 09:38:54;;;;;;;;;;;6.00;83.70;;;;;;5094868;28;19922;-69
2021/03/20 09:41:20;;;;;;;;;;;6.10;83.90;;;;;;5095761;28;20385;-68
2021/03/20 09:43:55;;;;;;;;;;;6.10;83.90;;;;;;5110174;28;19967;-68
2021/03/20 09:46:36;;;;;;;;;;;6.20;84.10;;;;;;5095161;28;19915;-69
2021/03/20 09:49:07;;;;;;;;;;;6.30;84.30;;;;;;5095617;28;20067;-69
2021/03/20 09:51:45;;;;;;;;;;;6.20;84.40;;;;;;5095793;28;19989;-69
2021/03/20 09:54:27;;;;;;;;;;;6.30;84.50;;;;;;5095225;28;19912;-69
2021/03/20 09:56:54;;;;;;;;;;;6.40;84.50;;;;;;5108915;28;19912;-71
2021/03/20 09:59:29;;;;;;;;;;;6.40;84.60;;;;;;5106717;28;20477;-72
2021/03/20 10:01:55;;;;;;;;;;;6.50;84.60;;;;;;5104735;28;19908;-68
2021/03/20 10:04:57;;;;;;;;;;;6.60;84.70;;;;;;5094384;28;19916;-69
2021/03/20 10:07:26;;;;;;;;;;;6.60;84.70;;;;;;5049231;28;19956;-68
2021/03/20 10:09:54;;;;;;;;;;;6.70;84.70;;;;;;5098200;28;19908;-68
2021/03/20 10:12:22;;;;;;;;;;;6.70;84.50;;;;;;5111667;28;19907;-68
2021/03/20 10:15:07;;;;;;;;;;;6.80;84.40;;;;;;5112814;28;19912;-68
2021/03/20 10:17:53;;;;;;;;;;;6.90;84.30;;;;;;5115050;27;19923;-69
2021/03/20 10:20:20;;;;;;;;;;;6.90;84.30;;;;;;5100086;28;20054;-69
2021/03/20 10:22:56;;;;;;;;;;;7.00;84.40;;;;;;5106368;28;19911;-70
2021/03/20 10:25:23;;;;;;;;;;;7.00;84.40;;;;;;5113878;28;19911;-69
2021/03/20 10:27:50;;;;;;;;;;;7.00;84.40;;;;;;5113552;28;19947;-69
2021/03/20 10:30:24;;;;;;;;;;;7.10;84.40;;;;;;5111082;28;19915;-69
2021/03/20 10:33:23;;;;;;;;;;;7.20;84.30;;;;;;5114005;28;19915;-69
2021/03/20 10:35:48;;;;;;;;;;;7.20;84.10;;;;;;5094523;28;19995;-70
2021/03/20 10:38:23;;;;;;;;;;;7.30;84.00;;;;;;5112311;28;20022;-71
2021/03/20 10:40:59;;;;;;;;;;;7.40;83.80;;;;;;5105710;28;19916;-70
2021/03/20 10:43:25;;;;;;;;;;;7.40;83.80;;;;;;5107702;28;19914;-68
2021/03/20 10:45:50;;;;;;;;;;;7.40;83.80;;;;;;5111755;28;19998;-69
2021/03/20 10:48:18;;;;;;;;;;;7.40;83.90;;;;;;5112685;28;19953;-70
2021/03/20 10:50:45;;;;;;;;;;;7.40;83.90;;;;;;5108860;28;20366;-69
2021/03/20 10:53:17;;;;;;;;;;;7.50;84.00;;;;;;5112577;28;19922;-74
2021/03/20 10:55:44;;;;;;;;;;;7.50;84.00;;;;;;5110744;28;20298;-72
2021/03/20 10:58:15;;;;;;;;;;;7.50;83.90;;;;;;5110748;28;19911;-69
2021/03/20 11:00:45;;;;;;;;;;;7.60;84.10;;;;;;5100207;28;19908;-70
2021/03/20 11:03:18;;;;;;;;;;;7.60;83.90;;;;;;5113726;28;19914;-69
2021/03/20 11:05:43;;;;;;;;;;;7.70;84.00;;;;;;5098868;28;19923;-69
2021/03/20 11:08:18;;;;;;;;;;;7.70;84.00;;;;;;5093728;28;19911;-69
2021/03/20 11:10:45;;;;;;;;;;;7.70;83.90;;;;;;5091980;28;19912;-68
2021/03/20 11:13:16;;;;;;;;;;;7.80;83.80;;;;;;5107482;28;20366;-69
2021/03/20 11:15:44;;;;;;;;;;;7.90;83.80;;;;;;5093229;28;19912;-69
2021/03/20 11:18:29;;;;;;;;;;;7.90;83.60;;;;;;5097070;28;19923;-68
2021/03/20 11:20:55;;;;;;;;;;;8.00;83.70;;;;;;5113500;28;20301;-70
2021/03/20 11:23:30;;;;;;;;;;;7.90;83.60;;;;;;5107110;28;19961;-68
2021/03/20 11:25:56;;;;;;;;;;;8.00;83.50;;;;;;5091651;28;19908;-67
2021/03/20 11:28:28;;;;;;;;;;;7.90;83.40;;;;;;5093369;28;19908;-69
2021/03/20 11:30:55;;;;;;;;;;;8.00;83.40;;;;;;5092334;28;19916;-69
2021/03/20 11:33:23;;;;;;;;;;;8.00;83.30;;;;;;5093010;28;19958;-68
2021/03/20 11:35:50;;;;;;;;;;;8.10;84.00;;;;;;5089726;28;20424;-70
2021/03/20 11:38:17;;;;;;;;;;;8.10;83.30;;;;;;5092185;28;19969;-68
2021/03/20 11:41:13;;;;;;;;;;;8.10;83.30;;;;;;5091937;28;19912;-70
2021/03/20 11:43:44;;;;;;;;;;;8.20;83.40;;;;;;5074706;28;19933;-73
2021/03/20 11:46:17;;;;;;;;;;;8.20;83.20;;;;;;5091814;28;19912;-68
2021/03/20 11:49:05;;;;;;;;;;;8.20;83.10;;;;;;5100335;28;19982;-69
2021/03/20 11:51:32;;;;;;;;;;;8.20;83.30;;;;;;5102359;28;20019;-68
2021/03/20 11:54:04;;;;;;;;;;;8.30;83.30;;;;;;5104341;28;19947;-68
2021/03/20 11:58:53;;;;;;;5.30;2.25;;;8.40;82.60;;;;;;5106728;27;20432;-66
2021/03/20 12:01:45;;;;;;;5.97;3.10;;;8.40;83.20;;;;;;5088986;28;20382;-66
2021/03/20 12:04:10;;;;;;;7.05;2.47;;;8.30;83.60;;;;;;5083803;28;20039;-67
2021/03/20 12:06:37;;;;;;;3.38;2.50;;;8.30;83.90;;;;;;5083105;28;20025;-68
2021/03/20 12:09:28;;;;;;;3.33;1.73;;;8.30;84.00;;;;;;5078161;28;20119;-66
2021/03/20 12:11:55;;;;;;;6.82;2.45;;;8.40;84.20;;;;;;5077129;28;20487;-67
2021/03/20 12:14:30;;;;;;;4.13;2.05;;;8.40;84.30;;;;;;5084020;28;20047;-67
2021/03/20 12:17:13;;;;;;;3.03;2.30;;;8.50;84.50;;;;;;5086880;28;20032;-66
2021/03/20 12:20:00;;;;;;;3.40;1.88;;;8.40;85.00;;;;;;5086248;28;20066;-67
2021/03/20 12:22:44;;;;;;;2.90;2.22;;;8.50;84.50;;;;;;5070142;28;20395;-67
2021/03/20 12:25:49;;;;;;;9.05;3.08;;;8.50;84.50;;;;;;5078826;28;20036;-67
2021/03/20 12:28:34;;;;;;;;;;;8.50;84.60;;;;;;5075082;28;20428;-67
2021/03/20 12:31:14;;;;;;;3.00;1.77;;;8.50;84.70;;;;;;5069740;28;19916;-67
2021/03/20 12:33:58;;;;;;;6.25;2.45;;;8.60;84.90;;;;;;5098660;28;20032;-67
2021/03/20 12:36:28;;;;;;;;;;;8.50;85.20;;;;;;5085744;28;20036;-67
2021/03/20 12:38:55;;;;;;;4.22;2.10;;;8.50;85.40;;;;;;5087242;28;20378;-68
2021/03/20 12:41:22;;;;;;;4.18;2.30;;;8.60;85.90;;;;;;5086861;28;20029;-67
2021/03/20 12:44:24;;;;;;;4.60;2.22;;;8.60;86.00;;;;;;5086482;28;20076;-67
2021/03/20 12:46:54;;;;;;;3.80;2.42;;;8.60;86.30;;;;;;5086953;28;20085;-67
2021/03/20 12:49:23;;;;;;;10.20;2.20;;;8.60;86.40;;;;;;5080060;28;20028;-66
2021/03/20 12:52:03;;;;;;;7.68;2.15;;;8.70;86.50;;;;;;5084492;28;20028;-67
2021/03/20 12:54:35;;;;;;;8.57;2.75;;;8.70;86.60;;;;;;5087224;28;20035;-67
2021/03/20 12:57:01;;;;;;;4.63;2.47;;;8.70;86.50;;;;;;5085590;28;20056;-67
2021/03/20 12:59:27;;;;;;;4.40;2.33;;;8.80;86.60;;;;;;5086795;28;20124;-67
2021/03/20 13:01:53;;;;;;;5.60;2.28;;;8.70;86.40;;;;;;5087121;28;20040;-67
2021/03/20 13:04:20;;;;;;;3.13;2.03;;;8.80;86.60;;;;;;5086041;28;20052;-67
2021/03/20 13:06:47;;;;;;;2.80;1.90;;;8.80;86.70;;;;;;5086702;28;20475;-67
2021/03/20 13:09:13;;;;;;;2.15;1.80;;;8.80;86.70;;;;;;5078233;28;20491;-67
2021/03/20 13:11:38;;;;;;;11.00;2.40;;;8.80;86.70;;;;;;5073346;28;20471;-67
2021/03/20 13:14:07;;;;;;;4.88;2.90;;;8.90;86.80;;;;;;5073295;28;20036;-67
2021/03/20 13:16:36;;;;;;;5.60;2.78;;;8.90;86.70;;;;;;5072034;28;20048;-67
2021/03/20 13:19:03;;;;;;;8.35;2.33;;;8.80;86.60;;;;;;5071182;28;20032;-67
2021/03/20 13:21:30;;;;;;;3.95;2.50;;;8.90;87.50;;;;;;5072551;28;20033;-67
2021/03/20 13:23:57;;;;;;;5.25;2.90;;;8.80;86.80;;;;;;5069888;28;20029;-70
2021/03/20 13:26:22;;;;;;;6.50;2.55;;;8.90;86.80;;;;;;5071473;28;20029;-67
2021/03/20 13:28:51;;;;;;;4.35;2.45;;;8.90;86.80;;;;;;5073716;28;20032;-67
2021/03/20 13:31:17;;;;;;;7.88;3.05;;;8.90;86.70;;;;;;5065577;28;20465;-66
2021/03/20 13:33:43;;;;;;;4.22;2.55;;;8.90;86.80;;;;;;5069855;28;20039;-68
2021/03/20 13:36:10;;;;;;;7.05;2.67;;;8.80;86.90;;;;;;5065392;28;20032;-67
2021/03/20 13:38:36;;;;;;;4.85;3.17;;;8.80;87.10;;;;;;5066208;28;20040;-67
2021/03/20 13:41:02;;;;;;;2.90;1.98;;;8.90;87.30;;;;;;5073788;28;20043;-68
2021/03/20 13:43:28;;;;;;;2.63;2.00;;;8.80;87.40;;;;;;5067863;28;20037;-67
2021/03/20 13:45:57;;;;;;;3.55;2.55;;;8.90;87.70;;;;;;5061656;28;20039;-68
2021/03/20 13:48:23;;;;;;;3.47;2.55;;;8.90;87.70;;;;;;5065413;28;20063;-67
2021/03/20 13:50:49;;;;;;;5.47;2.65;;;8.90;87.70;;;;;;5073972;28;20032;-70
2021/03/20 13:53:21;;;;;;;2.00;1.50;;;8.90;87.80;;;;;;5073179;28;20077;-67
2021/03/20 13:55:56;;;;;;;6.55;2.78;;;8.90;87.90;;;;;;5073478;28;20116;-67
2021/03/20 13:58:25;;;;;;;5.00;2.65;;;8.90;88.00;;;;;;5069720;28;20090;-68
2021/03/20 14:00:53;;;;;;;6.20;2.00;;;8.90;88.00;;;;;;5073215;28;20032;-67
2021/03/20 14:03:19;;;;;;;3.30;2.30;;;8.90;88.00;;;;;;5060608;28;20021;-67
2021/03/20 14:05:45;;;;;;;4.65;2.50;;;9.00;88.00;;;;;;5065214;28;20033;-67
2021/03/20 14:08:11;;;;;;;3.05;2.20;;;8.90;87.80;;;;;;5070262;28;20036;-67
2021/03/20 14:10:39;;;;;;;3.17;1.92;;;9.00;87.70;;;;;;5069645;28;20162;-67
2021/03/20 14:13:06;;;;;;;4.30;2.30;;;9.00;87.70;;;;;;5068596;28;20107;-67
2021/03/20 14:15:35;;;;;;;4.32;2.90;;;9.00;87.70;;;;;;5070925;28;20040;-67
2021/03/20 14:18:02;;;;;;;3.10;2.55;;;9.00;87.80;;;;;;5069834;28;20040;-67
2021/03/20 14:20:30;;;;;;;2.50;1.83;;;9.00;87.90;;;;;;5068412;28;20494;-67
2021/03/20 14:22:56;;;;;;;3.17;1.90;;;9.00;87.90;;;;;;5063726;28;20468;-71
2021/03/20 14:25:24;;;;;;;2.05;1.55;;;9.00;88.00;;;;;;5071916;28;20024;-73
2021/03/20 14:27:50;;;;;;;3.05;1.75;;;9.00;88.00;;;;;;5064587;28;20039;-67
2021/03/20 14:30:33;;;;;;;2.53;1.63;;;9.00;88.00;;;;;;5059612;28;20020;-66
2021/03/20 14:32:59;;;;;;;2.05;1.25;;;9.00;88.30;;;;;;5056906;28;20036;-67
2021/03/20 14:35:25;;;;;;;1.40;1.30;;;9.00;88.20;;;;;;5058086;28;20040;-67
2021/03/20 14:37:51;;;;;;;0.95;0.95;;;9.10;88.20;;;;;;5056413;28;20041;-67